createdAt,value
2023-04-15T00:06:11.929Z,39
2023-04-15T00:34:53.315Z,39
2023-04-15T01:03:37.223Z,39
2023-04-15T01:32:14.217Z,39
2023-04-15T02:01:04.145Z,39
2023-04-15T02:29:46.845Z,39
2023-04-15T02:58:28.918Z,39
2023-04-15T03:27:06.931Z,39
2023-04-15T03:55:57.738Z,39
2023-04-15T04:24:46.056Z,39
2023-04-15T04:53:35.965Z,53
2023-04-15T05:22:23.802Z,51
2023-04-15T05:51:09.876Z,42
2023-04-15T06:19:49.187Z,45
2023-04-15T06:45:38.566Z,44
2023-04-15T07:14:19.409Z,47
2023-04-15T07:43:00.970Z,41
2023-04-15T08:11:41.214Z,42
2023-04-15T08:40:21.035Z,43
2023-04-15T09:08:51.494Z,40
2023-04-15T09:37:32.185Z,47
2023-04-15T10:06:05.854Z,49
2023-04-15T10:34:47.211Z,53
2023-04-15T11:03:17.557Z,45
2023-04-15T11:31:53.697Z,51
2023-04-15T12:00:32.516Z,52
2023-04-15T12:29:18.115Z,49
2023-04-15T12:58:00.961Z,47
2023-04-15T13:26:36.210Z,49
2023-04-15T13:55:19.776Z,47
2023-04-15T14:23:38.722Z,47
2023-04-15T14:52:10.254Z,46
2023-04-15T15:20:50.836Z,46
2023-04-15T15:49:21.628Z,54
2023-04-15T16:18:05.115Z,54
2023-04-15T16:46:41.190Z,47
2023-04-15T17:15:13.538Z,47
2023-04-15T17:44:02.342Z,51
2023-04-15T18:12:29.572Z,47
2023-04-15T18:41:17.071Z,46
2023-04-15T19:09:46.763Z,46
2023-04-15T19:38:35.461Z,42
2023-04-15T20:07:15.250Z,44
2023-04-15T20:35:55.429Z,44
2023-04-15T21:04:39.518Z,42
2023-04-15T21:33:21.790Z,46
2023-04-15T22:01:58.009Z,46
2023-04-15T22:30:30.819Z,41
2023-04-15T22:59:12.819Z,42
2023-04-15T23:27:46.578Z,47
2023-04-15T23:56:36.539Z,60
